Time;durP1;ratioP1;P1;durP2;ratioP2;P2;SDS_P1;SDS_P2;PMS_P1;PMS_P2;Temp;Humidity;BMP_temperature;BMP_pressure;BME280_temperature;BME280_humidity;BME280_pressure;Samples;Min_cycle;Max_cycle;Signal;HPM_P1;HPM_P2
2022/11/07 00:00:11;;;;;;;3.47;1.00;;;;;;;8.62;100.00;98577.84;4998348;28;20041;-79
2022/11/07 00:02:37;;;;;;;3.85;1.27;;;;;;;8.70;100.00;98572.22;5006412;28;20124;-77
2022/11/07 00:05:03;;;;;;;3.65;0.93;;;;;;;8.74;100.00;98572.63;4992307;28;20136;-79
2022/11/07 00:07:28;;;;;;;7.90;1.85;;;;;;;8.76;100.00;98570.56;5023690;28;20037;-79
2022/11/07 00:09:54;;;;;;;7.63;1.50;;;;;;;8.82;100.00;98566.19;5025614;28;20052;-77
2022/11/07 00:12:20;;;;;;;5.70;1.38;;;;;;;8.83;100.00;98559.78;5020317;28;20033;-79
2022/11/07 00:14:48;;;;;;;3.13;1.35;;;;;;;8.88;100.00;98550.03;5007885;28;20411;-79
2022/11/07 00:17:13;;;;;;;4.57;1.70;;;;;;;8.88;100.00;98559.94;5012290;28;20494;-78
2022/11/07 00:19:39;;;;;;;1.70;1.00;;;;;;;8.91;100.00;98556.81;4993463;28;20034;-79
2022/11/07 00:22:05;;;;;;;1.30;0.52;;;;;;;8.87;100.00;98548.41;5042399;28;20076;-78
2022/11/07 00:24:40;;;;;;;0.77;0.73;;;;;;;8.90;100.00;98544.47;5021515;28;20037;-79
2022/11/07 00:27:06;;;;;;;0.35;0.35;;;;;;;8.92;100.00;98551.25;5039850;28;20033;-78
2022/11/07 00:29:32;;;;;;;0.30;0.30;;;;;;;8.97;100.00;98550.56;4990752;28;20030;-76
2022/11/07 00:31:58;;;;;;;0.40;0.40;;;;;;;8.98;100.00;98544.19;5010230;28;20110;-80
2022/11/07 00:34:24;;;;;;;0.40;0.40;;;;;;;9.02;100.00;98531.97;5004870;28;20033;-77
2022/11/07 00:36:49;;;;;;;0.40;0.40;;;;;;;9.06;100.00;98538.56;5023297;28;20490;-78
2022/11/07 00:39:15;;;;;;;0.40;0.40;;;;;;;9.13;100.00;98543.84;5025526;28;20061;-76
2022/11/07 00:41:46;;;;;;;0.50;0.50;;;;;;;9.18;100.00;98541.31;5008328;28;20098;-76
2022/11/07 00:44:11;;;;;;;0.40;0.40;;;;;;;9.19;100.00;98527.69;4994487;28;20038;-78
2022/11/07 00:46:37;;;;;;;0.30;0.30;;;;;;;9.25;100.00;98526.00;5027211;28;20033;-77
2022/11/07 00:49:02;;;;;;;0.30;0.30;;;;;;;9.28;100.00;98527.41;5010048;28;20037;-78
2022/11/07 00:51:28;;;;;;;0.57;0.50;;;;;;;9.34;100.00;98518.47;5027307;28;20398;-78
2022/11/07 00:53:54;;;;;;;0.40;0.40;;;;;;;9.36;100.00;98509.16;5010804;28;20030;-78
2022/11/07 00:56:23;;;;;;;0.47;0.47;;;;;;;9.47;100.00;98494.16;5021553;28;20063;-77
2022/11/07 00:58:53;;;;;;;0.40;0.40;;;;;;;9.53;100.00;98511.25;5021258;28;20065;-78
2022/11/07 01:01:24;;;;;;;0.38;0.38;;;;;;;9.55;100.00;98506.47;4994760;28;20067;-77
2022/11/07 01:06:36;;;;;;;2.33;0.82;;;;;;;9.62;100.00;98494.63;5011485;28;20037;-78
2022/11/07 01:09:04;;;;;;;0.40;0.40;;;;;;;9.66;100.00;98498.50;5009311;28;20029;-78
2022/11/07 01:11:30;;;;;;;1.27;0.73;;;;;;;9.67;100.00;98484.03;5020878;28;20056;-78
2022/11/07 01:13:59;;;;;;;0.40;0.40;;;;;;;9.73;100.00;98495.72;5011297;28;20479;-79
2022/11/07 01:16:25;;;;;;;0.40;0.40;;;;;;;9.80;100.00;98490.28;5026468;28;20036;-80
2022/11/07 01:18:51;;;;;;;0.50;0.50;;;;;;;9.82;100.00;98482.84;5010048;28;20044;-78
2022/11/07 01:21:17;;;;;;;0.30;0.30;;;;;;;9.83;100.00;98482.59;4991710;28;20034;-80
2022/11/07 01:23:43;;;;;;;0.40;0.40;;;;;;;9.90;100.00;98483.34;5025477;28;20434;-78
2022/11/07 01:26:10;;;;;;;0.50;0.50;;;;;;;9.91;100.00;98465.34;5008045;28;20041;-78
2022/11/07 01:28:37;;;;;;;0.40;0.40;;;;;;;9.95;100.00;98476.44;5007566;28;20044;-78
2022/11/07 01:31:05;;;;;;;0.40;0.40;;;;;;;9.97;100.00;98459.06;5009140;28;20033;-77
2022/11/07 01:33:31;;;;;;;0.38;0.38;;;;;;;9.99;100.00;98459.66;5024238;28;20038;-78
2022/11/07 01:36:07;;;;;;;0.40;0.40;;;;;;;10.01;100.00;98464.81;5019034;28;20037;-78
2022/11/07 01:38:35;;;;;;;0.55;0.50;;;;;;;10.03;100.00;98447.44;5023061;28;20495;-77
2022/11/07 01:43:46;;;;;;;0.35;0.35;;;;;;;10.10;100.00;98461.56;5011717;28;20037;-78
2022/11/07 01:46:12;;;;;;;0.45;0.45;;;;;;;10.15;100.00;98463.56;5007407;28;20537;-77
2022/11/07 01:48:39;;;;;;;0.40;0.40;;;;;;;10.13;100.00;98450.38;5025094;28;20056;-77
2022/11/07 01:51:05;;;;;;;0.50;0.50;;;;;;;10.10;100.00;98440.06;5006471;28;20468;-76
2022/11/07 01:53:31;;;;;;;0.52;0.50;;;;;;;10.20;100.00;98442.22;5025205;28;20091;-77
2022/11/07 01:55:57;;;;;;;0.30;0.30;;;;;;;10.18;100.00;98438.13;5009613;28;20470;-76
2022/11/07 01:58:25;;;;;;;0.30;0.30;;;;;;;10.23;100.00;98440.94;5025913;28;20399;-77
2022/11/07 02:00:51;;;;;;;0.30;0.30;;;;;;;10.18;100.00;98428.19;4990963;28;20066;-76
2022/11/07 02:03:18;;;;;;;0.50;0.50;;;;;;;10.27;100.00;98434.06;5006825;28;20034;-79
2022/11/07 02:05:52;;;;;;;0.38;0.38;;;;;;;10.28;100.00;98428.47;5026241;28;20506;-76
2022/11/07 02:08:18;;;;;;;0.40;0.40;;;;;;;10.25;100.00;98431.59;5016098;28;20038;-78
2022/11/07 02:10:44;;;;;;;0.35;0.35;;;;;;;10.34;100.00;98429.41;5025675;28;20074;-78
2022/11/07 02:13:15;;;;;;;0.40;0.40;;;;;;;10.31;100.00;98411.09;5025550;28;20025;-77
2022/11/07 02:15:41;;;;;;;0.50;0.50;;;;;;;10.38;100.00;98427.09;5008428;28;20033;-77
2022/11/07 02:18:06;;;;;;;0.30;0.30;;;;;;;10.38;100.00;98427.91;5009220;28;20025;-75
2022/11/07 02:20:32;;;;;;;0.70;0.57;;;;;;;10.39;100.00;98439.47;5010912;28;20029;-78
2022/11/07 02:23:21;;;;;;;3.00;0.73;;;;;;;10.42;100.00;98430.94;4990662;28;20068;-77
2022/11/07 02:25:46;;;;;;;0.40;0.40;;;;;;;10.36;100.00;98421.94;5005272;28;20045;-76
2022/11/07 02:28:12;;;;;;;0.30;0.30;;;;;;;10.47;100.00;98429.19;5022678;28;20645;-77
2022/11/07 02:30:38;;;;;;;0.90;0.60;;;;;;;10.51;100.00;98418.81;5024603;28;20039;-76
2022/11/07 02:33:19;;;;;;;0.40;0.40;;;;;;;10.57;100.00;98421.38;5020606;28;20215;-79
2022/11/07 02:35:47;;;;;;;0.40;0.40;;;;;;;10.62;100.00;98425.25;5000189;28;20068;-76
2022/11/07 02:38:31;;;;;;;0.50;0.50;;;;;;;10.60;100.00;98413.91;5026048;28;20135;-77
2022/11/07 02:41:04;;;;;;;0.40;0.40;;;;;;;10.62;100.00;98411.81;5021796;28;20029;-76
2022/11/07 02:43:32;;;;;;;0.40;0.40;;;;;;;10.58;100.00;98406.06;5024838;28;20037;-77
2022/11/07 02:45:59;;;;;;;0.40;0.40;;;;;;;10.53;100.00;98409.47;4990626;28;20033;-77
2022/11/07 02:48:38;;;;;;;0.60;0.60;;;;;;;10.63;100.00;98413.44;5001287;28;20484;-77
2022/11/07 02:51:04;;;;;;;0.38;0.38;;;;;;;10.69;100.00;98416.03;5003295;28;20041;-78
2022/11/07 02:53:29;;;;;;;0.40;0.40;;;;;;;10.75;100.00;98403.53;5010003;28;20042;-76
2022/11/07 02:55:55;;;;;;;0.30;0.30;;;;;;;10.73;100.00;98402.94;5005303;28;20033;-78
2022/11/07 02:58:21;;;;;;;0.30;0.30;;;;;;;10.75;100.00;98412.41;5008164;28;20403;-79
2022/11/07 03:00:46;;;;;;;0.30;0.30;;;;;;;10.71;100.00;98396.97;5025663;28;20072;-77
2022/11/07 03:03:12;;;;;;;0.30;0.30;;;;;;;10.66;100.00;98396.84;5023264;28;20052;-78
2022/11/07 03:05:38;;;;;;;0.40;0.40;;;;;;;10.54;100.00;98380.75;5023669;28;20271;-76
2022/11/07 03:08:04;;;;;;;0.30;0.30;;;;;;;10.70;100.00;98398.84;5009905;28;20029;-78
2022/11/07 03:10:31;;;;;;;0.50;0.50;;;;;;;10.69;100.00;98396.38;5024761;28;20193;-78
2022/11/07 03:12:57;;;;;;;0.32;0.32;;;;;;;10.71;100.00;98400.47;5011279;28;20143;-79
2022/11/07 03:15:23;;;;;;;0.30;0.30;;;;;;;10.67;100.00;98393.94;5005699;28;20041;-76
2022/11/07 03:17:48;;;;;;;0.47;0.35;;;;;;;10.68;100.00;98392.06;5024667;28;20549;-77
2022/11/07 03:20:17;;;;;;;0.40;0.40;;;;;;;10.65;100.00;98385.28;5022545;28;20076;-77
2022/11/07 03:22:42;;;;;;;0.40;0.40;;;;;;;10.67;100.00;98382.38;5023292;28;20466;-76
2022/11/07 03:25:08;;;;;;;0.40;0.40;;;;;;;10.71;100.00;98395.09;5022949;28;20041;-79
2022/11/07 03:27:34;;;;;;;0.52;0.43;;;;;;;10.72;100.00;98385.19;5022137;28;20029;-77
2022/11/07 03:29:59;;;;;;;0.50;0.50;;;;;;;10.71;100.00;98376.28;5029070;28;20040;-76
2022/11/07 03:32:25;;;;;;;0.50;0.50;;;;;;;10.70;100.00;98365.78;5026701;28;20076;-76
2022/11/07 03:34:51;;;;;;;0.40;0.40;;;;;;;10.74;100.00;98366.91;5012039;28;20117;-78
2022/11/07 03:37:16;;;;;;;0.40;0.40;;;;;;;10.79;100.00;98370.53;5026927;28;20033;-78
2022/11/07 03:39:42;;;;;;;0.40;0.40;;;;;;;10.82;100.00;98357.69;5026894;28;20041;-78
2022/11/07 03:42:08;;;;;;;0.30;0.30;;;;;;;10.79;100.00;98359.78;5029540;28;20041;-76
2022/11/07 03:44:33;;;;;;;0.52;0.52;;;;;;;10.81;100.00;98351.50;5028257;28;20480;-77
2022/11/07 03:46:59;;;;;;;0.40;0.40;;;;;;;10.81;100.00;98362.25;5011327;28;20045;-76
2022/11/07 03:49:24;;;;;;;0.40;0.40;;;;;;;10.76;100.00;98354.06;5031602;28;20033;-78
2022/11/07 03:51:50;;;;;;;0.30;0.30;;;;;;;10.72;100.00;98358.31;5026082;28;20021;-76
2022/11/07 03:54:15;;;;;;;0.80;0.57;;;;;;;10.73;100.00;98366.13;5028202;28;20033;-77
2022/11/07 03:56:41;;;;;;;0.30;0.30;;;;;;;10.68;100.00;98351.75;5029430;28;20104;-77
2022/11/07 03:59:07;;;;;;;0.30;0.30;;;;;;;10.76;100.00;98357.56;5031196;28;20037;-77
2022/11/07 04:01:32;;;;;;;0.30;0.30;;;;;;;10.73;100.00;98351.88;5029111;28;20045;-76
2022/11/07 04:03:58;;;;;;;0.38;0.38;;;;;;;10.75;100.00;98366.69;5028745;28;20044;-77
2022/11/07 04:06:24;;;;;;;0.40;0.40;;;;;;;10.72;100.00;98352.94;4995564;28;20637;-76
2022/11/07 04:08:50;;;;;;;0.30;0.30;;;;;;;10.75;100.00;98349.75;5011402;28;21809;-78
2022/11/07 04:19:29;;;;;;;0.40;0.40;;;;;;;10.80;100.00;98344.50;5026773;28;20045;-80
2022/11/07 04:21:54;;;;;;;0.30;0.30;;;;;;;10.83;100.00;98327.91;5027577;28;20038;-79
2022/11/07 04:24:20;;;;;;;0.38;0.38;;;;;;;10.81;100.00;98332.69;4997377;28;20037;-78
2022/11/07 04:29:29;;;;;;;0.40;0.40;;;;;;;10.91;100.00;98335.59;5009827;28;20388;-79
2022/11/07 04:31:55;;;;;;;0.30;0.30;;;;;;;10.96;100.00;98332.19;5024266;28;20512;-77
2022/11/07 04:34:21;;;;;;;0.38;0.38;;;;;;;10.91;100.00;98319.47;5028640;28;20037;-78
2022/11/07 04:36:46;;;;;;;0.40;0.40;;;;;;;11.06;100.00;98334.25;5024020;28;20034;-79
2022/11/07 04:39:12;;;;;;;0.40;0.40;;;;;;;11.08;100.00;98329.47;4994724;28;20091;-80
2022/11/07 04:41:38;;;;;;;0.35;0.35;;;;;;;11.07;100.00;98325.97;5009381;28;20033;-79
2022/11/07 04:44:04;;;;;;;0.30;0.30;;;;;;;11.11;100.00;98328.97;5027495;28;20049;-78
2022/11/07 04:46:30;;;;;;;0.40;0.40;;;;;;;11.08;100.00;98322.19;5026412;28;20037;-76
2022/11/07 04:48:56;;;;;;;0.43;0.43;;;;;;;11.08;100.00;98324.91;4990796;28;20048;-79
2022/11/07 04:51:21;;;;;;;0.30;0.30;;;;;;;11.05;100.00;98316.50;5009005;28;20383;-76
2022/11/07 04:53:47;;;;;;;0.35;0.35;;;;;;;11.03;100.00;98322.09;5011608;28;20395;-77
2022/11/07 04:56:13;;;;;;;0.30;0.30;;;;;;;11.05;100.00;98313.81;5010014;28;20033;-76
2022/11/07 04:58:38;;;;;;;0.35;0.35;;;;;;;10.99;100.00;98294.88;4992213;28;20037;-76
2022/11/07 05:01:04;;;;;;;0.50;0.50;;;;;;;11.02;100.00;98306.22;5026972;28;20040;-76
2022/11/07 05:03:30;;;;;;;0.30;0.30;;;;;;;11.07;100.00;98304.44;5028870;28;20029;-76
2022/11/07 05:05:55;;;;;;;0.40;0.40;;;;;;;11.06;100.00;98301.97;5009872;28;20021;-78
2022/11/07 05:08:21;;;;;;;0.55;0.55;;;;;;;11.05;100.00;98286.91;5011128;28;20033;-77
2022/11/07 05:10:47;;;;;;;2.30;0.60;;;;;;;11.07;100.00;98285.63;5025735;28;20029;-76
2022/11/07 05:13:12;;;;;;;0.40;0.40;;;;;;;11.10;100.00;98305.84;5026031;28;20044;-78
2022/11/07 05:15:38;;;;;;;0.60;0.60;;;;;;;11.12;100.00;98301.03;4991551;28;20044;-78
2022/11/07 05:18:04;;;;;;;0.38;0.38;;;;;;;11.14;100.00;98301.59;5009753;28;20460;-78
2022/11/07 05:20:35;;;;;;;0.90;0.40;;;;;;;11.17;100.00;98304.66;5023073;28;20063;-77
2022/11/07 05:23:17;;;;;;;0.68;0.60;;;;;;;11.11;100.00;98294.00;5028320;28;20035;-78
2022/11/07 05:25:47;;;;;;;0.40;0.40;;;;;;;11.12;100.00;98299.16;5019119;28;20030;-79
2022/11/07 05:28:16;;;;;;;1.17;0.70;;;;;;;11.06;100.00;98289.38;5025066;28;20669;-79
2022/11/07 05:30:43;;;;;;;0.30;0.30;;;;;;;11.09;100.00;98299.66;4991071;28;20063;-79
2022/11/07 05:33:09;;;;;;;0.40;0.40;;;;;;;11.10;100.00;98312.03;5009164;28;20484;-79
2022/11/07 05:35:35;;;;;;;0.60;0.60;;;;;;;11.14;100.00;98312.34;4992560;28;20061;-79
2022/11/07 05:38:01;;;;;;;0.45;0.45;;;;;;;11.18;100.00;98308.16;5030115;28;20120;-77
2022/11/07 05:40:26;;;;;;;0.47;0.47;;;;;;;11.20;100.00;98319.50;4991321;28;20033;-76
2022/11/07 05:42:52;;;;;;;0.77;0.55;;;;;;;11.21;100.00;98318.41;5008333;28;20532;-76
2022/11/07 05:45:17;;;;;;;3.20;0.95;;;;;;;11.21;100.00;98319.22;5027446;28;20033;-76
2022/11/07 05:47:43;;;;;;;0.40;0.40;;;;;;;11.22;100.00;98322.75;4994741;28;20034;-76
2022/11/07 05:50:09;;;;;;;0.30;0.30;;;;;;;11.21;100.00;98327.31;5007377;28;20030;-77
2022/11/07 05:52:36;;;;;;;0.30;0.30;;;;;;;11.23;100.00;98327.88;5012214;28;20353;-77
2022/11/07 05:55:02;;;;;;;0.40;0.40;;;;;;;11.23;100.00;98319.81;5025125;28;21630;-77
2022/11/07 05:57:29;;;;;;;0.30;0.30;;;;;;;11.23;100.00;98327.06;5029406;28;20029;-78
2022/11/07 05:59:55;;;;;;;1.98;0.63;;;;;;;11.21;100.00;98318.41;5021700;28;20033;-78
2022/11/07 06:02:20;;;;;;;0.40;0.40;;;;;;;11.21;100.00;98323.81;5026664;28;20037;-78
2022/11/07 06:04:46;;;;;;;0.30;0.30;;;;;;;11.21;100.00;98323.81;5024584;28;20456;-78
2022/11/07 06:07:12;;;;;;;0.40;0.40;;;;;;;11.23;100.00;98332.47;5025451;28;20029;-79
2022/11/07 06:09:37;;;;;;;0.30;0.30;;;;;;;11.24;100.00;98326.00;4990901;28;20490;-78
2022/11/07 06:12:03;;;;;;;0.30;0.30;;;;;;;11.23;100.00;98325.19;5029138;28;20041;-78
2022/11/07 06:14:29;;;;;;;0.40;0.40;;;;;;;11.25;100.00;98329.53;5007666;28;20052;-80
2022/11/07 06:16:55;;;;;;;0.90;0.50;;;;;;;11.22;100.00;98330.84;5026029;28;20033;-78
2022/11/07 06:19:20;;;;;;;0.50;0.50;;;;;;;11.27;100.00;98336.28;5020137;28;20033;-79
2022/11/07 06:21:46;;;;;;;0.30;0.30;;;;;;;11.28;100.00;98337.94;5028874;28;20395;-78
2022/11/07 06:24:11;;;;;;;1.75;0.63;;;;;;;11.25;100.00;98333.03;5026813;28;20037;-78
2022/11/07 06:26:37;;;;;;;0.50;0.50;;;;;;;11.28;100.00;98329.88;5025867;28;20358;-75
2022/11/07 06:29:03;;;;;;;0.40;0.40;;;;;;;11.25;100.00;98334.91;5025206;28;20036;-78
2022/11/07 06:31:28;;;;;;;0.73;0.50;;;;;;;11.28;100.00;98337.94;5024113;28;20049;-75
2022/11/07 06:33:54;;;;;;;0.32;0.32;;;;;;;11.27;100.00;98336.28;4995762;28;20128;-78
2022/11/07 06:36:19;;;;;;;0.40;0.40;;;;;;;11.24;100.00;98334.06;5022860;28;20033;-77
2022/11/07 06:38:51;;;;;;;0.30;0.30;;;;;;;11.21;100.00;98330.00;5026854;28;20481;-79
2022/11/07 06:41:16;;;;;;;0.40;0.40;;;;;;;11.22;100.00;98328.16;5021177;28;20037;-78
2022/11/07 06:43:42;;;;;;;0.40;0.40;;;;;;;11.21;100.00;98323.81;5006416;28;20045;-79
2022/11/07 06:46:11;;;;;;;0.40;0.40;;;;;;;11.20;100.00;98330.25;5018867;28;20057;-78
2022/11/07 06:48:37;;;;;;;0.40;0.40;;;;;;;11.16;100.00;98327.19;5001664;28;20884;-80
2022/11/07 06:51:04;;;;;;;0.40;0.40;;;;;;;11.15;100.00;98328.28;5020657;28;20859;-79
2022/11/07 06:53:30;;;;;;;0.30;0.30;;;;;;;11.18;100.00;98335.03;5023159;28;20112;-78
2022/11/07 06:55:59;;;;;;;0.30;0.30;;;;;;;11.18;100.00;98330.47;5026262;28;20159;-77
2022/11/07 06:58:24;;;;;;;0.40;0.40;;;;;;;11.15;100.00;98330.97;5002024;28;20091;-78
2022/11/07 07:00:50;;;;;;;0.95;0.43;;;;;;;11.12;100.00;98327.94;5035898;28;21232;-78
2022/11/07 07:03:16;;;;;;;0.30;0.30;;;;;;;11.18;100.00;98335.03;4992065;28;20129;-79
2022/11/07 07:05:42;;;;;;;0.30;0.30;;;;;;;11.16;100.00;98329.88;5005191;28;20026;-77
2022/11/07 07:08:09;;;;;;;1.20;0.60;;;;;;;11.15;100.00;98320.19;5028815;28;20045;-78
2022/11/07 07:10:38;;;;;;;0.30;0.30;;;;;;;11.17;100.00;98323.47;5029743;28;20065;-77
2022/11/07 07:13:04;;;;;;;0.30;0.30;;;;;;;11.06;100.00;98300.13;5027370;28;20103;-77
2022/11/07 07:15:31;;;;;;;0.30;0.30;;;;;;;11.18;100.00;98322.41;5032483;28;20150;-77
2022/11/07 07:18:00;;;;;;;0.40;0.40;;;;;;;11.19;100.00;98320.53;5013982;28;20095;-77
2022/11/07 07:20:26;;;;;;;1.02;0.45;;;;;;;11.19;100.00;98315.16;5027173;28;20025;-78
2022/11/07 07:22:52;;;;;;;0.30;0.30;;;;;;;11.17;100.00;98311.91;5009724;28;20041;-77
2022/11/07 07:25:17;;;;;;;0.40;0.40;;;;;;;11.11;100.00;98315.53;5008737;28;20033;-78
2022/11/07 07:27:43;;;;;;;0.30;0.30;;;;;;;11.10;100.00;98324.66;5031458;28;20029;-78
2022/11/07 07:30:09;;;;;;;0.30;0.30;;;;;;;11.08;100.00;98324.09;5029903;28;20029;-78
2022/11/07 07:32:35;;;;;;;0.60;0.60;;;;;;;11.15;100.00;98325.56;5011766;28;20086;-79
2022/11/07 07:35:01;;;;;;;0.43;0.43;;;;;;;11.17;100.00;98312.72;5024644;28;20512;-78
2022/11/07 07:37:27;;;;;;;0.30;0.30;;;;;;;11.14;100.00;98312.34;5008293;28;20065;-77
2022/11/07 07:39:52;;;;;;;0.30;0.30;;;;;;;11.05;100.00;98317.31;5026217;28;20079;-78
2022/11/07 07:42:18;;;;;;;0.35;0.35;;;;;;;11.06;100.00;98318.97;5037873;28;20422;-79
2022/11/07 07:44:44;;;;;;;0.30;0.30;;;;;;;11.00;100.00;98320.69;5027982;28;20060;-77
2022/11/07 07:47:09;;;;;;;0.30;0.30;;;;;;;10.97;100.00;98321.19;5009197;28;20041;-78
2022/11/07 07:49:35;;;;;;;0.40;0.40;;;;;;;10.93;100.00;98322.72;4991655;28;20045;-79
2022/11/07 07:52:01;;;;;;;0.40;0.40;;;;;;;10.89;100.00;98324.25;5026904;28;20065;-78
2022/11/07 07:54:26;;;;;;;0.30;0.30;;;;;;;10.94;100.00;98324.34;5010148;28;20121;-78
2022/11/07 07:56:52;;;;;;;0.30;0.30;;;;;;;10.94;100.00;98321.66;5029884;28;20104;-78
2022/11/07 07:59:18;;;;;;;0.40;0.40;;;;;;;11.06;100.00;98327.03;5029796;28;20056;-79
2022/11/07 08:01:46;;;;;;;0.32;0.32;;;;;;;11.07;100.00;98322.47;5024269;28;20087;-77
2022/11/07 08:04:11;;;;;;;0.30;0.30;;;;;;;11.15;100.00;98328.28;4998343;28;20030;-78
2022/11/07 08:06:37;;;;;;;0.30;0.30;;;;;;;11.19;100.00;98325.91;5026602;28;20045;-78
2022/11/07 08:09:03;;;;;;;0.30;0.30;;;;;;;11.10;100.00;98314.72;5025999;28;20072;-79
2022/11/07 08:11:29;;;;;;;0.40;0.40;;;;;;;11.21;100.00;98332.69;5009125;28;20065;-79
2022/11/07 08:13:55;;;;;;;0.30;0.30;;;;;;;11.23;100.00;98327.88;5029229;28;20586;-79
2022/11/07 08:16:21;;;;;;;0.30;0.30;;;;;;;11.25;100.00;98324.97;5023644;28;20099;-78
2022/11/07 08:18:46;;;;;;;0.30;0.30;;;;;;;11.22;100.00;98323.56;5025447;28;20040;-77
2022/11/07 08:21:12;;;;;;;0.30;0.30;;;;;;;11.20;100.00;98325.69;5026976;28;20808;-77
2022/11/07 08:23:38;;;;;;;0.30;0.30;;;;;;;11.21;100.00;98321.91;5024457;28;20075;-77
2022/11/07 08:26:04;;;;;;;0.35;0.35;;;;;;;11.24;100.00;98326.00;5027361;28;20037;-77
2022/11/07 08:28:34;;;;;;;0.60;0.60;;;;;;;11.24;100.00;98326.00;5026515;28;20049;-77
2022/11/07 08:31:04;;;;;;;0.40;0.40;;;;;;;11.23;100.00;98327.88;5006347;28;20069;-79
2022/11/07 08:33:30;;;;;;;0.43;0.43;;;;;;;11.26;100.00;98325.78;4995905;28;20037;-78
2022/11/07 08:35:59;;;;;;;0.40;0.40;;;;;;;11.29;100.00;98328.78;5012288;28;20451;-80
2022/11/07 08:38:25;;;;;;;0.40;0.40;;;;;;;11.28;100.00;98316.41;5006128;28;20036;-79
2022/11/07 08:40:51;;;;;;;0.40;0.40;;;;;;;11.31;100.00;98317.81;5018919;28;20734;-79
2022/11/07 08:43:19;;;;;;;0.85;0.85;;;;;;;11.47;100.00;98321.59;5022860;28;20045;-79
2022/11/07 08:45:49;;;;;;;0.40;0.40;;;;;;;11.46;100.00;98320.78;5024027;28;20529;-77
2022/11/07 08:48:16;;;;;;;0.35;0.35;;;;;;;11.43;100.00;98319.41;5005987;28;20037;-76
2022/11/07 08:50:42;;;;;;;0.40;0.40;;;;;;;11.49;100.00;98323.00;5005505;28;20124;-80
2022/11/07 08:53:08;;;;;;;0.40;0.40;;;;;;;11.51;100.00;98312.81;5008079;28;20033;-77
2022/11/07 08:55:34;;;;;;;0.30;0.30;;;;;;;11.47;100.00;98308.97;5025690;28;20368;-79
2022/11/07 08:58:02;;;;;;;0.38;0.38;;;;;;;11.54;100.00;98306.13;5039170;28;20042;-77
2022/11/07 09:00:28;;;;;;;0.30;0.30;;;;;;;11.64;100.00;98311.66;5027614;28;20029;-77
2022/11/07 09:02:53;;;;;;;0.38;0.38;;;;;;;11.77;100.00;98308.66;5023975;28;20033;-77
2022/11/07 09:05:19;;;;;;;0.40;0.40;;;;;;;11.95;100.00;98320.31;5006953;28;20044;-77
2022/11/07 09:07:45;;;;;;;0.40;0.40;;;;;;;12.11;100.00;98308.72;5010569;28;20036;-77
2022/11/07 09:10:10;;;;;;;0.40;0.40;;;;;;;12.16;100.00;98300.72;5008580;28;20032;-85
2022/11/07 09:12:46;;;;;;;0.40;0.40;;;;;;;12.28;100.00;98296.06;5007171;28;20041;-82
2022/11/07 09:15:12;;;;;;;0.30;0.30;;;;;;;12.24;100.00;98294.09;5024360;28;20376;-84
2022/11/07 09:17:38;;;;;;;0.40;0.40;;;;;;;12.32;100.00;98280.19;5027436;28;20467;-84
2022/11/07 09:20:04;;;;;;;0.40;0.40;;;;;;;12.47;100.00;98293.09;5026212;28;20116;-84
2022/11/07 09:22:30;;;;;;;0.40;0.40;;;;;;;12.48;100.00;98292.81;4995105;28;20156;-83
2022/11/07 09:24:56;;;;;;;0.38;0.38;;;;;;;12.47;100.00;98296.59;4992966;28;20124;-85
2022/11/07 09:27:21;;;;;;;0.30;0.30;;;;;;;12.44;100.00;98282.81;4995989;28;20494;-85
2022/11/07 09:29:47;;;;;;;0.40;0.40;;;;;;;12.46;100.00;98280.66;5011934;28;20038;-84
2022/11/07 09:32:12;;;;;;;0.32;0.32;;;;;;;12.41;100.00;98267.94;4994587;28;20045;-83
2022/11/07 09:34:38;;;;;;;0.40;0.40;;;;;;;12.45;100.00;98276.34;4993322;28;20040;-84
2022/11/07 09:37:04;;;;;;;0.40;0.40;;;;;;;12.27;100.00;98254.00;5009372;28;20039;-84
2022/11/07 09:39:29;;;;;;;0.30;0.30;;;;;;;12.19;100.00;98259.81;5010957;28;20044;-82
2022/11/07 09:42:02;;;;;;;0.50;0.50;;;;;;;12.23;100.00;98260.94;5011728;28;20111;-83
2022/11/07 09:44:46;;;;;;;0.73;0.50;;;;;;;12.02;100.00;98245.56;5012172;28;20559;-85
2022/11/07 09:47:37;;;;;;;0.47;0.47;;;;;;;12.09;100.00;98251.56;5020509;28;20045;-82
2022/11/07 09:50:11;;;;;;;0.40;0.40;;;;;;;12.10;100.00;98250.53;5010243;28;20075;-77
2022/11/07 09:52:57;;;;;;;0.40;0.40;;;;;;;12.17;100.00;98234.16;4991941;28;20480;-77
2022/11/07 09:55:26;;;;;;;0.40;0.40;;;;;;;12.18;100.00;98233.13;4998456;28;20476;-77
2022/11/07 09:57:56;;;;;;;0.30;0.30;;;;;;;12.18;100.00;98225.84;4991032;28;20128;-77
2022/11/07 10:00:22;;;;;;;0.30;0.30;;;;;;;12.25;100.00;98231.88;5057499;28;20032;-82
2022/11/07 10:02:50;;;;;;;0.40;0.40;;;;;;;12.34;100.00;98218.00;5023005;28;20060;-83
2022/11/07 10:05:38;;;;;;;0.40;0.40;;;;;;;12.57;100.00;98215.06;4998683;28;20444;-82
2022/11/07 10:08:50;;;;;;;0.40;0.40;;;;;;;12.80;100.00;98208.56;5024166;28;20037;-82
2022/11/07 10:11:36;;;;;;;0.40;0.40;;;;;;;12.90;100.00;98215.97;4964593;28;20038;-83
2022/11/07 10:14:21;;;;;;;0.40;0.40;;;;;;;12.89;100.00;98217.03;5017026;28;20137;-83
2022/11/07 10:16:58;;;;;;;0.30;0.30;;;;;;;12.85;100.00;98200.53;4988793;28;20551;-81
2022/11/07 10:19:27;;;;;;;0.50;0.50;;;;;;;12.95;100.00;98213.31;5010327;28;20088;-82
2022/11/07 10:22:16;;;;;;;0.40;0.40;;;;;;;12.99;100.00;98203.63;5025333;28;20060;-85
2022/11/07 10:24:51;;;;;;;0.93;0.70;;;;;;;12.91;100.00;98199.53;5034156;28;20038;-81
2022/11/07 10:27:19;;;;;;;1.17;0.98;;;;;;;12.93;100.00;98189.28;5027504;28;20033;-83
2022/11/07 10:29:52;;;;;;;0.82;0.82;;;;;;;12.88;100.00;98178.44;5028139;28;20491;-81
2022/11/07 10:32:22;;;;;;;0.80;0.75;;;;;;;12.76;100.00;98181.31;5023964;28;20037;-81
2022/11/07 10:35:23;;;;;;;0.60;0.57;;;;;;;12.65;100.00;98186.81;5011539;28;20180;-80
2022/11/07 10:37:57;;;;;;;0.50;0.50;;;;;;;12.80;100.00;98161.91;5017559;28;20033;-83
2022/11/07 10:40:27;;;;;;;0.43;0.43;;;;;;;12.83;100.00;98161.41;5025660;28;20364;-81
2022/11/07 10:42:54;;;;;;;0.40;0.40;;;;;;;12.94;100.00;98169.34;5001719;28;20083;-81
2022/11/07 10:45:21;;;;;;;0.32;0.32;;;;;;;12.93;100.00;98158.81;5030885;28;20441;-84
2022/11/07 10:48:01;;;;;;;0.40;0.40;;;;;;;12.97;100.00;98162.63;4993581;28;20128;-86
2022/11/07 10:50:27;;;;;;;0.63;0.63;;;;;;;12.95;100.00;98151.28;5030644;28;20539;-81
2022/11/07 10:52:55;;;;;;;5.25;0.90;;;;;;;12.83;100.00;98135.25;5014811;28;20053;-81
2022/11/07 10:55:21;;;;;;;0.47;0.47;;;;;;;12.85;100.00;98149.28;4997303;28;20064;-81
2022/11/07 10:57:58;;;;;;;2.58;0.88;;;;;;;12.84;100.00;98154.97;4998884;28;20099;-81
2022/11/07 11:00:25;;;;;;;0.63;0.63;;;;;;;12.82;100.00;98157.09;4997514;28;20056;-82
2022/11/07 11:02:52;;;;;;;0.60;0.60;;;;;;;12.80;100.00;98148.44;4992147;28;20029;-82
2022/11/07 11:05:39;;;;;;;0.40;0.40;;;;;;;12.77;100.00;98147.06;5012920;28;20045;-83
2022/11/07 11:08:30;;;;;;;1.55;0.65;;;;;;;12.78;100.00;98135.22;4999416;28;20064;-80
2022/11/07 11:10:56;;;;;;;0.87;0.87;;;;;;;12.64;100.00;98110.53;5031162;28;20060;-81
2022/11/07 11:13:29;;;;;;;1.27;0.57;;;;;;;12.74;100.00;98109.81;5011757;28;20476;-81
2022/11/07 11:15:55;;;;;;;;;;;;;;;12.96;100.00;98136.72;5012358;28;20140;-82
2022/11/07 11:18:22;;;;;;;0.32;0.32;;;;;;;12.93;100.00;98135.34;5048207;28;20347;-80
2022/11/07 11:20:57;;;;;;;0.30;0.30;;;;;;;12.77;100.00;98101.22;5032369;28;20033;-81
2022/11/07 11:23:33;;;;;;;0.60;0.40;;;;;;;12.88;100.00;98121.00;5024531;28;20026;-81
2022/11/07 11:26:02;;;;;;;0.50;0.50;;;;;;;12.84;100.00;98120.72;5013044;28;20029;-81
2022/11/07 11:28:34;;;;;;;0.40;0.40;;;;;;;12.94;100.00;98104.63;4994896;28;20455;-83
2022/11/07 11:31:04;;;;;;;0.47;0.47;;;;;;;13.25;100.00;98112.16;5015142;28;20448;-82
2022/11/07 11:33:37;;;;;;;0.40;0.40;;;;;;;13.50;100.00;98108.88;4994667;28;20657;-81
2022/11/07 11:36:23;;;;;;;;;;;;;;;13.63;100.00;98092.22;4998023;28;20034;-81
2022/11/07 11:38:54;;;;;;;0.40;0.40;;;;;;;13.66;100.00;98077.38;5008012;28;20015;-84
2022/11/07 11:41:24;;;;;;;0.70;0.70;;;;;;;13.55;100.00;98088.13;5028080;28;20061;-82
2022/11/07 11:44:17;;;;;;;0.40;0.40;;;;;;;13.60;100.00;98085.44;5013590;28;20265;-82
2022/11/07 11:47:26;;;;;;;0.60;0.60;;;;;;;13.70;100.00;98059.56;5050259;28;20034;-82